createdAt,value
2023-05-05T00:01:48.231Z,100239.56
2023-05-05T00:04:34.369Z,100244.31
2023-05-05T00:07:17.920Z,100250.19
2023-05-05T00:10:04.448Z,100245.19
2023-05-05T00:12:48.508Z,100242.19
2023-05-05T00:15:31.345Z,100243.19
2023-05-05T00:18:23.808Z,100244.47
2023-05-05T00:21:04.563Z,100242.09
2023-05-05T00:23:51.250Z,100237.66
2023-05-05T00:26:37.339Z,100233.34
2023-05-05T00:29:15.458Z,100235.84
2023-05-05T00:32:09.264Z,100229.19
2023-05-05T00:34:50.479Z,100223.28
2023-05-05T00:37:37.335Z,100228.09
2023-05-05T00:40:23.576Z,100233.19
2023-05-05T00:43:06.310Z,100230.38
2023-05-05T00:46:01.191Z,100230.75
2023-05-05T00:48:39.372Z,100228.47
2023-05-05T00:51:21.232Z,100227.28
2023-05-05T00:54:08.739Z,100234.84
2023-05-05T00:56:49.154Z,100230.47
2023-05-05T00:59:36.800Z,100228.00
2023-05-05T01:02:22.947Z,100234.97
2023-05-05T01:05:11.325Z,100228.09
2023-05-05T01:08:06.561Z,100236.47
2023-05-05T01:11:00.697Z,100227.53
2023-05-05T01:13:59.416Z,100233.03
2023-05-05T01:16:42.236Z,100228.31
2023-05-05T01:19:49.845Z,100228.09
2023-05-05T01:22:38.962Z,100231.19
2023-05-05T01:25:43.211Z,100230.38
2023-05-05T01:28:48.364Z,100221.06
2023-05-05T01:31:44.938Z,100225.66
2023-05-05T01:34:34.948Z,100228.78
2023-05-05T01:37:28.089Z,100222.75
2023-05-05T01:40:06.894Z,100225.47
2023-05-05T01:42:52.073Z,100225.47
2023-05-05T01:45:37.740Z,100224.03
2023-05-05T01:48:18.552Z,100234.84
2023-05-05T01:51:06.805Z,100235.25
2023-05-05T01:53:51.132Z,100226.28
2023-05-05T01:56:40.447Z,100221.09
2023-05-05T01:59:24.181Z,100228.13
2023-05-05T02:02:06.209Z,100223.94
2023-05-05T02:04:47.503Z,100223.72
2023-05-05T02:07:44.665Z,100225.16
2023-05-05T02:10:26.447Z,100219.75
2023-05-05T02:13:13.446Z,100215.59
2023-05-05T02:16:00.048Z,100215.59
2023-05-05T02:18:40.353Z,100216.81
2023-05-05T02:21:24.148Z,100216.19
2023-05-05T02:24:07.339Z,100222.13
2023-05-05T02:26:55.510Z,100217.56
2023-05-05T02:29:49.718Z,100210.28
2023-05-05T02:32:52.748Z,100213.59
2023-05-05T02:35:37.387Z,100216.06
2023-05-05T02:38:29.512Z,100217.03
2023-05-05T02:41:12.661Z,100224.28
2023-05-05T02:44:03.625Z,100218.25
2023-05-05T02:46:51.691Z,100213.22
2023-05-05T02:49:44.462Z,100214.84
2023-05-05T02:52:30.969Z,100213.94
2023-05-05T02:55:17.275Z,100209.16
2023-05-05T02:58:32.069Z,100212.03
2023-05-05T03:01:39.536Z,100211.75
2023-05-05T03:04:23.108Z,100210.63
2023-05-05T03:07:09.565Z,100209.44
2023-05-05T03:10:03.080Z,100214.56
2023-05-05T03:12:56.820Z,100207.94
2023-05-05T03:16:11.634Z,100208.31
2023-05-05T03:18:54.193Z,100209.56
2023-05-05T03:21:29.273Z,100206.94
2023-05-05T03:24:17.629Z,100209.03
2023-05-05T03:26:55.432Z,100213.56
2023-05-05T03:29:35.422Z,100213.91
2023-05-05T03:32:17.122Z,100201.28
2023-05-05T03:35:03.564Z,100208.06
2023-05-05T03:37:49.925Z,100210.13
2023-05-05T03:40:44.138Z,100206.41
2023-05-05T03:43:38.492Z,100202.94
2023-05-05T03:46:22.795Z,100212.63
2023-05-05T03:49:02.185Z,100210.50
2023-05-05T03:51:41.760Z,100214.66
2023-05-05T03:54:25.629Z,100220.31
2023-05-05T03:57:06.551Z,100217.69
2023-05-05T03:59:46.477Z,100224.28
2023-05-05T04:02:32.392Z,100227.13
2023-05-05T04:05:19.114Z,100228.19
2023-05-05T04:08:05.856Z,100227.03
2023-05-05T04:10:53.138Z,100221.25
2023-05-05T04:13:51.469Z,100234.63
2023-05-05T04:16:34.514Z,100231.44
2023-05-05T04:19:23.075Z,100227.56
2023-05-05T04:22:02.452Z,100226.16
2023-05-05T04:24:52.350Z,100227.91
2023-05-05T04:27:30.644Z,100222.97
2023-05-05T04:30:16.361Z,100235.69
2023-05-05T04:33:09.564Z,100235.31
2023-05-05T04:35:49.917Z,100229.94
2023-05-05T04:38:36.702Z,100235.13
2023-05-05T04:41:21.555Z,100242.03
2023-05-05T04:44:00.126Z,100239.75
2023-05-05T04:46:53.176Z,100244.75
2023-05-05T04:49:32.171Z,100248.13
2023-05-05T04:52:19.176Z,100254.19
2023-05-05T04:54:59.854Z,100252.91
2023-05-05T04:57:37.566Z,100257.72
2023-05-05T05:00:28.898Z,100264.97
2023-05-05T05:03:01.270Z,100269.75
2023-05-05T05:05:37.558Z,100260.34
2023-05-05T05:08:24.895Z,100263.41
2023-05-05T05:11:10.696Z,100261.41
2023-05-05T05:13:55.008Z,100266.75
2023-05-05T05:16:38.159Z,100269.28
2023-05-05T05:19:30.152Z,100258.28
2023-05-05T05:22:10.623Z,100252.56
2023-05-05T05:24:52.181Z,100259.00
2023-05-05T05:27:55.268Z,100254.78
2023-05-05T05:30:52.349Z,100256.25
2023-05-05T05:33:39.176Z,100261.19
2023-05-05T05:36:16.058Z,100267.25
2023-05-05T05:38:57.989Z,100267.13
2023-05-05T05:41:50.094Z,100277.44
2023-05-05T05:44:32.423Z,100276.25
2023-05-05T05:47:07.114Z,100289.72
2023-05-05T05:49:56.425Z,100296.09
2023-05-05T05:52:37.725Z,100296.50
2023-05-05T05:55:25.012Z,100293.72
2023-05-05T05:58:10.152Z,100296.88
2023-05-05T06:01:05.350Z,100294.44
2023-05-05T06:03:51.927Z,100285.53
2023-05-05T06:06:30.220Z,100285.06
2023-05-05T06:09:11.556Z,100286.41
2023-05-05T06:11:57.845Z,100282.78
2023-05-05T06:14:41.311Z,100284.72
2023-05-05T06:17:22.709Z,100290.59
2023-05-05T06:20:02.914Z,100292.72
2023-05-05T06:22:53.511Z,100288.69
2023-05-05T06:25:32.145Z,100295.50
2023-05-05T06:28:12.342Z,100287.41
2023-05-05T06:30:44.411Z,100287.56
2023-05-05T06:33:27.535Z,100282.38
2023-05-05T06:36:15.218Z,100281.66
2023-05-05T06:38:50.817Z,100288.25
2023-05-05T06:41:49.341Z,100278.97
2023-05-05T06:44:34.719Z,100280.34
2023-05-05T06:47:24.476Z,100280.34
2023-05-05T06:50:10.493Z,100282.66
2023-05-05T06:52:55.131Z,100281.63
2023-05-05T06:55:37.739Z,100277.53
2023-05-05T06:58:13.369Z,100287.09
2023-05-05T07:01:10.567Z,100275.09
2023-05-05T07:03:53.458Z,100280.31
2023-05-05T07:06:32.174Z,100273.50
2023-05-05T07:09:11.741Z,100273.50
2023-05-05T07:11:48.157Z,100272.69
2023-05-05T07:14:29.872Z,100278.75
2023-05-05T07:17:10.531Z,100280.88
2023-05-05T07:19:52.173Z,100266.38
2023-05-05T07:22:42.973Z,100280.63
2023-05-05T07:25:21.214Z,100277.09
2023-05-05T07:28:08.131Z,100274.84
2023-05-05T07:31:09.022Z,100269.81
2023-05-05T07:33:50.287Z,100272.59
2023-05-05T07:36:33.898Z,100275.94
2023-05-05T07:39:05.755Z,100265.19
2023-05-05T07:41:43.472Z,100266.13
2023-05-05T07:44:24.739Z,100265.91
2023-05-05T07:47:02.697Z,100269.50
2023-05-05T07:49:43.351Z,100261.97
2023-05-05T07:52:46.738Z,100269.00
2023-05-05T07:55:36.623Z,100276.94
2023-05-05T07:58:20.235Z,100274.16
2023-05-05T08:01:01.445Z,100271.72
2023-05-05T08:03:44.602Z,100261.44
2023-05-05T08:06:25.446Z,100267.28
2023-05-05T08:09:14.876Z,100270.84
2023-05-05T08:11:55.610Z,100267.06
2023-05-05T08:14:40.237Z,100269.13
2023-05-05T08:17:33.797Z,100270.97
2023-05-05T08:20:20.192Z,100271.09
2023-05-05T08:23:05.726Z,100272.06
2023-05-05T08:25:46.654Z,100262.63
2023-05-05T08:28:39.546Z,100266.97
2023-05-05T08:31:31.329Z,100264.38
2023-05-05T08:34:14.924Z,100260.09
2023-05-05T08:36:58.140Z,100256.06
2023-05-05T08:39:43.544Z,100255.16
2023-05-05T08:42:37.081Z,100264.44
2023-05-05T08:45:30.159Z,100261.91
2023-05-05T08:48:11.665Z,100261.91
2023-05-05T08:51:11.361Z,100254.50
2023-05-05T08:54:06.145Z,100250.31
2023-05-05T08:56:52.424Z,100244.72
2023-05-05T08:59:44.186Z,100249.00
2023-05-05T09:02:28.548Z,100252.63
2023-05-05T09:05:09.086Z,100243.06
2023-05-05T09:07:50.541Z,100242.13
2023-05-05T09:10:31.864Z,100242.03
2023-05-05T09:13:13.557Z,100246.84
2023-05-05T09:15:58.255Z,100247.19
2023-05-05T09:18:53.884Z,100242.88
2023-05-05T09:21:30.147Z,100239.56
2023-05-05T09:24:23.201Z,100228.88
2023-05-05T09:27:30.359Z,100229.59
2023-05-05T09:30:14.166Z,100221.22
2023-05-05T09:33:00.522Z,100221.69
2023-05-05T09:36:01.564Z,100217.44
2023-05-05T09:38:39.807Z,100219.41
2023-05-05T09:41:25.004Z,100214.91
2023-05-05T09:44:11.771Z,100214.09
2023-05-05T09:46:57.177Z,100202.66
2023-05-05T09:49:37.883Z,100216.53
2023-05-05T09:52:25.328Z,100215.63
2023-05-05T09:55:03.295Z,100209.50
2023-05-05T09:57:46.589Z,100210.81
2023-05-05T10:00:27.646Z,100214.84
2023-05-05T10:03:14.043Z,100210.59
2023-05-05T10:06:15.404Z,100217.47
2023-05-05T10:09:14.647Z,100215.97
2023-05-05T10:11:53.224Z,100206.06
2023-05-05T10:14:34.861Z,100207.06
2023-05-05T10:17:18.446Z,100206.22
2023-05-05T10:20:01.171Z,100200.06
2023-05-05T10:22:49.045Z,100204.00
2023-05-05T10:25:35.894Z,100200.00
2023-05-05T10:28:17.539Z,100198.19
2023-05-05T10:31:04.255Z,100194.94
2023-05-05T10:34:06.589Z,100189.25
2023-05-05T10:36:46.746Z,100188.81
2023-05-05T10:39:28.008Z,100182.28
2023-05-05T10:42:10.916Z,100175.06
2023-05-05T10:44:56.533Z,100164.50
2023-05-05T10:47:36.455Z,100160.28
2023-05-05T10:50:32.866Z,100166.44
2023-05-05T10:53:28.504Z,100160.91
2023-05-05T10:56:33.767Z,100153.34
2023-05-05T10:59:36.463Z,100163.47
2023-05-05T11:02:40.382Z,100156.28
2023-05-05T11:05:22.735Z,100149.47
2023-05-05T11:08:30.685Z,100141.69
2023-05-05T11:11:13.686Z,100139.00
2023-05-05T11:14:08.356Z,100137.25
2023-05-05T11:16:55.214Z,100138.06
2023-05-05T11:19:53.645Z,100134.25
2023-05-05T11:22:29.315Z,100128.47
2023-05-05T11:25:51.414Z,100124.47
2023-05-05T11:28:34.311Z,100130.81
2023-05-05T11:31:35.073Z,100116.78
2023-05-05T11:34:27.935Z,100123.25
2023-05-05T11:37:07.964Z,100118.75
2023-05-05T11:39:59.218Z,100118.59
2023-05-05T11:42:38.152Z,100114.41
2023-05-05T11:45:30.600Z,100104.63
2023-05-05T11:48:28.287Z,100103.09
2023-05-05T11:51:08.966Z,100103.78
2023-05-05T11:53:59.057Z,100110.81
2023-05-05T11:56:57.443Z,100105.69
2023-05-05T11:59:36.464Z,100091.25
2023-05-05T12:02:15.756Z,100089.72
2023-05-05T12:04:56.571Z,100089.09
2023-05-05T12:07:41.841Z,100090.53
2023-05-05T12:10:28.030Z,100088.00
2023-05-05T12:13:21.350Z,100086.59
2023-05-05T12:16:20.017Z,100078.81
2023-05-05T12:19:11.909Z,100077.56
2023-05-05T12:21:54.350Z,100071.31
2023-05-05T12:24:46.557Z,100078.19
2023-05-05T12:27:21.662Z,100070.16
2023-05-05T12:30:03.378Z,100065.88
2023-05-05T12:32:44.600Z,100068.34
2023-05-05T12:35:22.798Z,100058.44
2023-05-05T12:38:04.262Z,100056.84
2023-05-05T12:40:58.524Z,100051.19
2023-05-05T12:43:51.000Z,100053.16
2023-05-05T12:46:49.576Z,100047.81
2023-05-05T12:49:48.731Z,100057.09
2023-05-05T12:52:55.798Z,100051.28
2023-05-05T12:55:52.104Z,100058.34
2023-05-05T12:58:28.037Z,100051.31
2023-05-05T13:01:24.076Z,100047.75
2023-05-05T13:04:15.392Z,100040.19
2023-05-05T13:06:50.078Z,100037.75
2023-05-05T13:09:37.616Z,100035.09
2023-05-05T13:12:25.021Z,100029.75
2023-05-05T13:15:05.404Z,100022.69
2023-05-05T13:17:44.441Z,100008.53
2023-05-05T13:20:39.575Z,100021.34
2023-05-05T13:23:20.291Z,100019.03
2023-05-05T13:26:01.483Z,100008.63
2023-05-05T13:28:48.567Z,100011.06
2023-05-05T13:31:34.615Z,100009.94
2023-05-05T13:34:16.241Z,100008.16
2023-05-05T13:36:59.528Z,100004.75
2023-05-05T13:39:42.240Z,100004.41
2023-05-05T13:42:25.868Z,100001.19
2023-05-05T13:45:10.331Z,99994.47
2023-05-05T13:47:52.495Z,99992.69
2023-05-05T13:50:36.965Z,99986.69
2023-05-05T13:53:20.131Z,99988.56
2023-05-05T13:56:02.962Z,99996.53
2023-05-05T13:58:43.166Z,99987.78
2023-05-05T14:01:18.022Z,99989.34
2023-05-05T14:04:05.184Z,99987.38
2023-05-05T14:06:50.168Z,99983.84
2023-05-05T14:09:26.175Z,99984.00
2023-05-05T14:12:07.797Z,99986.88
2023-05-05T14:14:55.869Z,99976.78
2023-05-05T14:17:36.646Z,99983.84
2023-05-05T14:20:19.903Z,99983.97
2023-05-05T14:23:03.732Z,99985.06
2023-05-05T14:25:45.192Z,99977.47
2023-05-05T14:28:19.909Z,99989.22
2023-05-05T14:31:00.131Z,99980.94
2023-05-05T14:33:49.270Z,99973.47
2023-05-05T14:36:39.436Z,99971.22
2023-05-05T14:39:24.150Z,99973.72
2023-05-05T14:42:10.178Z,99969.47
2023-05-05T14:44:50.908Z,99969.34
2023-05-05T14:47:33.943Z,99963.78
2023-05-05T14:50:18.110Z,99964.03
2023-05-05T14:52:59.925Z,99959.13
2023-05-05T14:55:35.936Z,99960.91
2023-05-05T14:58:15.610Z,99966.16
2023-05-05T15:01:02.168Z,99961.13
2023-05-05T15:03:42.221Z,99970.69
2023-05-05T15:06:23.380Z,99958.25
2023-05-05T15:09:12.610Z,99960.47
2023-05-05T15:11:54.193Z,99958.06
2023-05-05T15:14:40.905Z,99964.66
2023-05-05T15:17:24.149Z,99956.91
2023-05-05T15:20:04.096Z,99954.47
2023-05-05T15:22:49.542Z,99957.69
2023-05-05T15:25:30.429Z,99961.94
2023-05-05T15:28:19.152Z,99955.44
2023-05-05T15:30:57.411Z,99960.97
2023-05-05T15:33:41.130Z,99950.91
2023-05-05T15:36:24.681Z,99956.28
2023-05-05T15:39:05.458Z,99944.22
2023-05-05T15:42:02.804Z,99944.22
2023-05-05T15:44:51.987Z,99948.13
2023-05-05T15:47:33.921Z,99944.88
2023-05-05T15:50:23.687Z,99943.84
2023-05-05T15:53:01.774Z,99938.63
2023-05-05T15:55:40.374Z,99936.06
2023-05-05T15:58:23.712Z,99934.00
2023-05-05T16:01:06.881Z,99941.81
2023-05-05T16:03:50.385Z,99941.09
2023-05-05T16:06:33.987Z,99933.50
2023-05-05T16:09:10.183Z,99936.28
2023-05-05T16:11:58.137Z,99932.31
2023-05-05T16:14:36.367Z,99929.00
2023-05-05T16:17:21.637Z,99929.19
2023-05-05T16:20:05.190Z,99923.72
2023-05-05T16:23:00.217Z,99929.13
2023-05-05T16:25:54.529Z,99926.19
2023-05-05T16:28:37.800Z,99924.75
2023-05-05T16:31:18.930Z,99920.81
2023-05-05T16:34:02.524Z,99924.50
2023-05-05T16:36:44.453Z,99921.59
2023-05-05T16:39:31.186Z,99917.06
2023-05-05T16:42:16.000Z,99923.44
2023-05-05T16:44:57.153Z,99911.63
2023-05-05T16:47:36.232Z,99914.94
2023-05-05T16:50:19.535Z,99910.34
2023-05-05T16:52:54.746Z,99911.19
2023-05-05T16:55:30.421Z,99911.69
2023-05-05T16:58:07.337Z,99916.59
2023-05-05T17:00:50.427Z,99916.16
2023-05-05T17:03:39.359Z,99910.56
2023-05-05T17:06:25.455Z,99911.75
2023-05-05T17:09:11.530Z,99907.19
2023-05-05T17:11:52.378Z,99909.94
2023-05-05T17:14:30.613Z,99904.69
2023-05-05T17:17:05.747Z,99908.63
2023-05-05T17:19:47.810Z,99911.53
2023-05-05T17:22:20.141Z,99917.63
2023-05-05T17:25:00.129Z,99915.06
2023-05-05T17:27:45.807Z,99914.81
2023-05-05T17:30:24.832Z,99912.47
2023-05-05T17:33:08.141Z,99913.38
2023-05-05T17:35:48.194Z,99908.63
2023-05-05T17:38:32.223Z,99914.34
2023-05-05T17:41:18.330Z,99917.06
2023-05-05T17:43:59.672Z,99920.91
2023-05-05T17:46:37.028Z,99913.91
2023-05-05T17:49:21.502Z,99917.19
2023-05-05T17:52:09.993Z,99911.88
2023-05-05T17:55:02.276Z,99911.00
2023-05-05T17:57:43.188Z,99914.84
2023-05-05T18:00:25.228Z,99912.66
2023-05-05T18:03:17.032Z,99916.19
2023-05-05T18:05:58.276Z,99919.13
2023-05-05T18:08:38.534Z,99924.72
2023-05-05T18:11:28.070Z,99923.50
2023-05-05T18:14:11.227Z,99924.16
2023-05-05T18:16:54.174Z,99931.94
2023-05-05T18:19:34.033Z,99934.28
2023-05-05T18:22:23.147Z,99931.22
2023-05-05T18:25:08.272Z,99932.31
2023-05-05T18:27:55.235Z,99938.22
2023-05-05T18:30:40.478Z,99936.59
2023-05-05T18:33:31.694Z,99943.97
2023-05-05T18:36:17.455Z,99943.66
2023-05-05T18:39:01.232Z,99942.59
2023-05-05T18:41:52.075Z,99948.28
2023-05-05T18:44:29.530Z,99947.34
2023-05-05T18:47:13.817Z,99944.03
2023-05-05T18:49:47.489Z,99941.16
2023-05-05T18:52:34.099Z,99943.03
2023-05-05T18:55:29.931Z,99948.44
2023-05-05T18:58:12.484Z,99952.22
2023-05-05T19:00:54.305Z,99955.88
2023-05-05T19:03:33.907Z,99958.34
2023-05-05T19:06:08.242Z,99955.31
2023-05-05T19:08:45.268Z,99967.31
2023-05-05T19:11:27.572Z,99960.47
2023-05-05T19:14:16.374Z,99967.09
2023-05-05T19:16:55.941Z,99967.09
2023-05-05T19:19:39.908Z,99965.47
2023-05-05T19:22:17.996Z,99960.47
2023-05-05T19:25:05.641Z,99961.00
2023-05-05T19:27:41.384Z,99962.63
2023-05-05T19:30:26.994Z,99961.16
2023-05-05T19:33:19.278Z,99960.72
2023-05-05T19:36:04.067Z,99958.97
2023-05-05T19:38:50.143Z,99959.78
2023-05-05T19:41:31.594Z,99959.59
2023-05-05T19:44:25.452Z,99957.38
2023-05-05T19:47:03.146Z,99959.41
2023-05-05T19:49:54.545Z,99959.94
2023-05-05T19:52:39.159Z,99959.00
2023-05-05T19:55:17.859Z,99957.59
2023-05-05T19:58:02.473Z,99954.91
2023-05-05T20:00:51.365Z,99963.56
2023-05-05T20:03:37.711Z,99962.38
2023-05-05T20:06:20.336Z,99962.88
2023-05-05T20:09:04.233Z,99961.69
2023-05-05T20:11:55.257Z,99962.66
2023-05-05T20:14:41.450Z,99959.34
2023-05-05T20:17:26.486Z,99960.53
2023-05-05T20:20:07.577Z,99957.25
2023-05-05T20:22:48.156Z,99951.44
2023-05-05T20:25:32.849Z,99954.41
2023-05-05T20:28:15.192Z,99955.94
2023-05-05T20:31:01.188Z,99951.09
2023-05-05T20:33:47.934Z,99955.31
2023-05-05T20:36:31.594Z,99953.69
2023-05-05T20:39:09.751Z,99947.88
2023-05-05T20:42:06.198Z,99942.56
2023-05-05T20:44:51.905Z,99947.78
2023-05-05T20:47:39.675Z,99947.66
2023-05-05T20:50:20.385Z,99947.06
2023-05-05T20:53:06.686Z,99946.56
2023-05-05T20:55:50.438Z,99942.09
2023-05-05T20:58:55.986Z,99942.41
2023-05-05T21:01:43.228Z,99943.31
2023-05-05T21:04:25.054Z,99949.09
2023-05-05T21:07:07.653Z,99946.59
2023-05-05T21:09:54.191Z,99950.31
2023-05-05T21:12:36.831Z,99944.16
2023-05-05T21:15:16.038Z,99946.81
2023-05-05T21:17:56.995Z,99939.47
2023-05-05T21:20:35.017Z,99938.38
2023-05-05T21:23:19.774Z,99940.09
2023-05-05T21:25:55.597Z,99939.03
2023-05-05T21:28:37.049Z,99939.19
2023-05-05T21:31:21.892Z,99938.50
2023-05-05T21:34:16.268Z,99934.94
2023-05-05T21:36:51.510Z,99940.38
2023-05-05T21:39:43.230Z,99925.63
2023-05-05T21:42:23.964Z,99928.09
2023-05-05T21:45:05.951Z,99919.81
2023-05-05T21:47:40.608Z,99927.13
2023-05-05T21:50:27.623Z,99912.53
2023-05-05T21:53:09.498Z,99911.78
2023-05-05T21:55:50.190Z,99905.56
2023-05-05T21:58:36.294Z,99906.97
2023-05-05T22:01:24.680Z,99911.38
2023-05-05T22:04:09.825Z,99911.22
2023-05-05T22:06:56.592Z,99913.31
2023-05-05T22:09:36.032Z,99903.75
2023-05-05T22:12:16.952Z,99911.50
2023-05-05T22:15:05.246Z,99911.34
2023-05-05T22:17:46.186Z,99911.19
2023-05-05T22:20:29.367Z,99921.69
2023-05-05T22:23:07.654Z,99917.66
2023-05-05T22:25:44.452Z,99916.59
2023-05-05T22:28:22.116Z,99920.81
2023-05-05T22:31:01.200Z,99922.75
2023-05-05T22:33:44.382Z,99918.38
2023-05-05T22:36:27.288Z,99924.69
2023-05-05T22:39:11.216Z,99918.13
2023-05-05T22:42:00.202Z,99925.63
2023-05-05T22:44:44.157Z,99920.00
2023-05-05T22:47:23.175Z,99922.28
2023-05-05T22:50:14.620Z,99924.56
2023-05-05T22:52:47.150Z,99926.75
2023-05-05T22:55:36.143Z,99932.97
2023-05-05T22:58:11.720Z,99931.66
2023-05-05T23:00:54.658Z,99928.50
2023-05-05T23:03:32.553Z,99939.34
2023-05-05T23:06:07.419Z,99934.56
2023-05-05T23:08:52.722Z,99931.50
2023-05-05T23:11:37.225Z,99925.84
2023-05-05T23:14:17.021Z,99926.13
2023-05-05T23:17:05.130Z,99932.16
2023-05-05T23:19:48.323Z,99925.50
2023-05-05T23:22:42.483Z,99923.50
2023-05-05T23:25:28.523Z,99926.25
2023-05-05T23:28:07.456Z,99928.97
2023-05-05T23:30:53.629Z,99927.31
2023-05-05T23:33:39.515Z,99920.69
2023-05-05T23:36:25.863Z,99924.44
2023-05-05T23:39:09.609Z,99910.78
2023-05-05T23:41:50.140Z,99916.59
2023-05-05T23:44:26.204Z,99921.94
2023-05-05T23:47:12.924Z,99918.03
2023-05-05T23:49:53.166Z,99921.38
2023-05-05T23:52:34.347Z,99919.50
2023-05-05T23:55:17.453Z,99915.94
2023-05-05T23:57:55.036Z,99922.44
